Time;durP1;ratioP1;P1;durP2;ratioP2;P2;SDS_P1;SDS_P2;PMS_P1;PMS_P2;Temp;Humidity;BMP_temperature;BMP_pressure;BME280_temperature;BME280_humidity;BME280_pressure;Samples;Min_cycle;Max_cycle;Signal;HPM_P1;HPM_P2
2023/01/24 00:00:01;;;;;;;0.50;0.50;;;3.00;99.90;;;;;;5055403;28;20274;-81
2023/01/24 00:02:28;;;;;;;0.95;0.73;;;3.00;99.90;;;;;;5055539;28;20240;-80
2023/01/24 00:04:54;;;;;;;0.50;0.50;;;3.00;99.90;;;;;;5056905;28;20195;-80
2023/01/24 00:07:21;;;;;;;4.63;3.17;;;3.10;99.90;;;;;;5058093;28;20245;-80
2023/01/24 00:09:48;;;;;;;1.08;0.98;;;3.10;99.90;;;;;;5056979;28;20282;-80
2023/01/24 00:12:15;;;;;;;0.60;0.60;;;3.10;99.90;;;;;;5059608;28;20258;-81
2023/01/24 00:14:43;;;;;;;0.50;0.50;;;3.10;99.90;;;;;;5059436;28;20230;-81
2023/01/24 00:17:10;;;;;;;4.78;4.47;;;3.10;99.90;;;;;;5059905;28;20246;-81
2023/01/24 00:19:37;;;;;;;0.70;0.70;;;3.10;99.90;;;;;;5059606;28;20274;-80
2023/01/24 00:22:06;;;;;;;6.72;2.78;;;3.10;99.90;;;;;;5060293;28;20265;-81
2023/01/24 00:24:34;;;;;;;1.13;0.98;;;3.00;99.90;;;;;;5060137;28;20252;-80
2023/01/24 00:27:01;;;;;;;0.50;0.40;;;3.00;99.90;;;;;;5060097;28;20214;-80
2023/01/24 00:29:28;;;;;;;0.90;0.90;;;3.00;99.90;;;;;;5060542;28;20266;-81
2023/01/24 00:31:56;;;;;;;1.80;1.35;;;3.00;99.90;;;;;;5059671;28;20632;-80
2023/01/24 00:34:23;;;;;;;4.72;2.90;;;3.00;99.90;;;;;;5060464;28;20241;-80
2023/01/24 00:36:50;;;;;;;1.30;1.20;;;3.00;99.90;;;;;;5058939;28;20242;-80
2023/01/24 00:39:17;;;;;;;0.50;0.50;;;3.00;99.90;;;;;;5058081;28;20266;-80
2023/01/24 00:41:44;;;;;;;0.50;0.50;;;3.00;99.90;;;;;;5057258;28;20277;-80
2023/01/24 00:44:11;;;;;;;3.17;2.88;;;3.00;99.90;;;;;;5056875;28;20201;-80
2023/01/24 00:46:38;;;;;;;2.10;1.50;;;3.00;99.90;;;;;;5061371;28;20222;-80
2023/01/24 00:49:06;;;;;;;2.22;2.03;;;3.00;99.90;;;;;;5061057;28;20575;-81
2023/01/24 00:51:33;;;;;;;2.15;2.05;;;3.00;99.90;;;;;;5062464;28;20226;-80
2023/01/24 00:54:00;;;;;;;0.50;0.40;;;3.00;99.90;;;;;;5062531;28;20668;-81
2023/01/24 00:56:27;;;;;;;0.50;0.40;;;3.00;99.90;;;;;;5062896;28;20301;-80
2023/01/24 00:58:54;;;;;;;6.00;4.07;;;3.00;99.90;;;;;;5063010;28;20195;-78
2023/01/24 01:01:20;;;;;;;0.50;0.50;;;3.00;99.90;;;;;;5063193;28;20194;-80
2023/01/24 01:03:47;;;;;;;3.13;2.10;;;3.00;99.90;;;;;;5062429;28;20747;-80
2023/01/24 01:06:17;;;;;;;1.33;1.23;;;3.00;99.90;;;;;;5062564;28;20284;-80
2023/01/24 01:08:44;;;;;;;3.13;1.20;;;3.00;99.90;;;;;;5063966;28;20216;-80
2023/01/24 01:11:11;;;;;;;2.45;2.35;;;3.00;99.90;;;;;;5062594;28;20249;-81
2023/01/24 01:13:38;;;;;;;0.80;0.60;;;3.00;99.90;;;;;;5063565;28;20273;-80
2023/01/24 01:16:07;;;;;;;1.88;1.77;;;2.90;99.90;;;;;;5062437;28;20195;-80
2023/01/24 01:18:35;;;;;;;0.50;0.50;;;2.90;99.90;;;;;;5062715;28;20545;-80
2023/01/24 01:21:02;;;;;;;0.88;0.88;;;2.90;99.90;;;;;;5062762;28;20559;-79
2023/01/24 01:23:30;;;;;;;0.60;0.60;;;2.90;99.90;;;;;;5062321;28;20668;-81
2023/01/24 01:26:01;;;;;;;0.50;0.40;;;2.90;99.90;;;;;;5063216;28;20466;-80
2023/01/24 01:28:28;;;;;;;0.70;0.70;;;2.90;99.90;;;;;;5063489;28;20222;-81
2023/01/24 01:30:56;;;;;;;1.23;1.13;;;2.90;99.90;;;;;;5063159;28;20222;-81
2023/01/24 01:33:24;;;;;;;1.95;1.85;;;2.90;99.90;;;;;;5063293;28;20258;-81
2023/01/24 01:35:51;;;;;;;2.97;2.85;;;2.90;99.90;;;;;;5062711;28;20613;-80
2023/01/24 01:38:19;;;;;;;2.17;1.98;;;2.90;99.90;;;;;;5063896;28;20201;-79
2023/01/24 01:40:47;;;;;;;1.60;1.50;;;2.90;99.90;;;;;;5063088;28;20199;-80
2023/01/24 01:43:15;;;;;;;0.50;0.40;;;2.90;99.90;;;;;;5062341;28;20210;-80
2023/01/24 01:45:44;;;;;;;3.40;2.55;;;2.90;99.90;;;;;;5062842;28;20218;-80
2023/01/24 01:48:19;;;;;;;0.70;0.70;;;2.90;99.90;;;;;;5063384;28;20210;-80
2023/01/24 01:50:51;;;;;;;0.50;0.50;;;2.80;99.90;;;;;;5064090;28;20601;-80
2023/01/24 01:53:18;;;;;;;1.45;1.35;;;2.90;99.90;;;;;;5063040;28;20239;-80
2023/01/24 01:55:51;;;;;;;1.88;1.30;;;2.80;99.90;;;;;;5061937;28;20718;-80
2023/01/24 01:58:19;;;;;;;1.23;0.70;;;2.90;99.90;;;;;;5063058;28;20244;-80
2023/01/24 02:00:49;;;;;;;14.77;7.72;;;2.90;99.90;;;;;;5063286;28;20203;-80
2023/01/24 02:06:04;;;;;;;1.15;1.15;;;2.90;99.90;;;;;;5062097;28;20198;-81
2023/01/24 02:08:33;;;;;;;0.60;0.50;;;2.80;99.90;;;;;;5063191;28;20727;-78
2023/01/24 02:13:48;;;;;;;1.10;1.10;;;2.90;99.90;;;;;;5063094;28;20572;-80
2023/01/24 02:16:16;;;;;;;1.15;1.15;;;2.90;99.90;;;;;;5061999;28;20211;-80
2023/01/24 02:18:44;;;;;;;1.95;1.00;;;2.90;99.90;;;;;;5062451;28;20195;-80
2023/01/24 02:21:14;;;;;;;2.25;1.13;;;2.90;99.90;;;;;;5062298;28;20776;-80
2023/01/24 02:23:51;;;;;;;1.25;1.25;;;2.90;99.90;;;;;;5063211;28;20217;-80
2023/01/24 02:26:22;;;;;;;0.50;0.50;;;2.90;99.90;;;;;;5062814;28;20233;-80
2023/01/24 02:28:53;;;;;;;0.88;0.60;;;2.90;99.90;;;;;;5062710;28;20242;-81
2023/01/24 02:31:20;;;;;;;0.50;0.50;;;2.80;99.90;;;;;;5062308;28;20198;-80
2023/01/24 02:33:47;;;;;;;0.50;0.45;;;2.80;99.90;;;;;;5061577;28;20218;-80
2023/01/24 02:36:22;;;;;;;2.25;1.40;;;2.80;99.90;;;;;;5058900;28;20258;-79
2023/01/24 02:38:54;;;;;;;0.50;0.40;;;2.80;99.90;;;;;;5058203;28;20258;-78
2023/01/24 02:41:26;;;;;;;0.50;0.50;;;2.80;99.90;;;;;;5057885;28;20218;-80
2023/01/24 02:43:55;;;;;;;2.25;0.88;;;2.80;99.90;;;;;;5059796;28;20203;-79
2023/01/24 02:46:22;;;;;;;2.25;2.10;;;2.90;99.90;;;;;;5066751;28;20802;-81
2023/01/24 02:48:51;;;;;;;0.50;0.40;;;2.80;99.90;;;;;;5057539;28;20234;-81
2023/01/24 02:54:02;;;;;;;0.50;0.45;;;2.80;99.90;;;;;;5058067;28;20647;-78
2023/01/24 02:59:15;;;;;;;0.50;0.40;;;2.80;99.90;;;;;;5058400;28;20223;-80
2023/01/24 03:01:41;;;;;;;0.77;0.73;;;2.80;99.90;;;;;;5057544;28;20232;-80
2023/01/24 03:04:09;;;;;;;1.60;1.50;;;2.70;99.90;;;;;;5057385;28;20210;-81
2023/01/24 03:06:36;;;;;;;2.42;2.33;;;2.80;99.90;;;;;;5057837;28;20805;-80
2023/01/24 03:09:17;;;;;;;0.50;0.50;;;2.80;99.90;;;;;;5059592;28;20202;-81
2023/01/24 03:11:46;;;;;;;0.90;0.80;;;2.70;99.90;;;;;;5058936;28;20198;-80
2023/01/24 03:36:13;;;;;;;1.33;1.25;;;2.70;99.90;;;;;;5060562;28;20182;-81
2023/01/24 03:41:24;;;;;;;1.73;1.63;;;2.70;99.90;;;;;;5059903;28;20198;-81
2023/01/24 03:43:52;;;;;;;0.60;0.60;;;2.70;99.90;;;;;;5059820;28;20225;-81
2023/01/24 03:46:19;;;;;;;0.50;0.50;;;2.70;99.90;;;;;;5059578;28;20239;-80
2023/01/24 03:48:46;;;;;;;1.58;0.90;;;2.70;99.90;;;;;;5060307;28;20294;-80
2023/01/24 03:53:57;;;;;;;0.80;0.80;;;2.70;99.90;;;;;;5059577;28;20197;-80
2023/01/24 03:56:25;;;;;;;0.50;0.40;;;2.70;99.90;;;;;;5058593;28;20253;-81
2023/01/24 03:58:54;;;;;;;0.88;0.55;;;2.70;99.90;;;;;;5059750;28;20244;-80
2023/01/24 04:01:21;;;;;;;1.23;0.90;;;2.70;99.90;;;;;;5059160;28;20195;-80
2023/01/24 04:03:48;;;;;;;1.88;1.25;;;2.70;99.90;;;;;;5059178;28;20769;-80
2023/01/24 04:06:17;;;;;;;0.50;0.50;;;2.70;99.90;;;;;;5058405;28;20230;-80
2023/01/24 04:08:44;;;;;;;2.55;2.35;;;2.70;99.90;;;;;;5059639;28;20174;-81
2023/01/24 04:11:10;;;;;;;1.13;0.95;;;2.70;99.90;;;;;;5057925;28;20198;-80
2023/01/24 04:13:37;;;;;;;0.50;0.40;;;2.70;99.90;;;;;;5058338;28;20222;-80
2023/01/24 04:16:07;;;;;;;2.15;1.48;;;2.70;99.90;;;;;;5057375;28;20623;-81
2023/01/24 04:18:36;;;;;;;0.60;0.50;;;2.70;99.90;;;;;;5057222;28;20198;-80
2023/01/24 04:21:03;;;;;;;1.20;1.10;;;2.70;99.90;;;;;;5061090;28;20229;-80
2023/01/24 04:23:30;;;;;;;0.50;0.40;;;2.70;99.90;;;;;;5062380;28;20309;-80
2023/01/24 04:25:59;;;;;;;3.35;3.25;;;2.70;99.90;;;;;;5061141;28;20226;-80
2023/01/24 04:28:27;;;;;;;1.38;1.20;;;2.60;99.90;;;;;;5061657;28;20198;-80
2023/01/24 04:30:58;;;;;;;0.50;0.40;;;2.60;99.90;;;;;;5061904;28;20266;-80
2023/01/24 04:33:26;;;;;;;0.50;0.50;;;2.60;99.90;;;;;;5062531;28;20324;-80
2023/01/24 04:35:57;;;;;;;0.75;0.60;;;2.60;99.90;;;;;;5061252;28;20265;-81
2023/01/24 04:38:24;;;;;;;2.45;2.28;;;2.60;99.90;;;;;;5061850;28;20252;-81
2023/01/24 04:40:58;;;;;;;1.77;1.50;;;2.50;99.90;;;;;;5062984;28;20237;-81
2023/01/24 04:43:25;;;;;;;10.27;1.02;;;2.50;99.90;;;;;;5062086;28;20214;-81
2023/01/24 04:45:56;;;;;;;1.55;1.45;;;2.50;99.90;;;;;;5062156;28;20190;-80
2023/01/24 04:48:23;;;;;;;0.70;0.70;;;2.40;99.90;;;;;;5063004;28;20632;-81
2023/01/24 04:50:51;;;;;;;0.50;0.40;;;2.40;99.90;;;;;;5063090;28;20266;-80
2023/01/24 04:53:18;;;;;;;0.50;0.40;;;2.40;99.90;;;;;;5062955;28;20209;-79
2023/01/24 04:55:45;;;;;;;1.77;1.08;;;2.40;99.90;;;;;;5062786;28;20222;-81
2023/01/24 04:58:12;;;;;;;0.50;0.40;;;2.40;99.90;;;;;;5062364;28;20249;-80
2023/01/24 05:00:38;;;;;;;0.60;0.50;;;2.50;99.90;;;;;;5062453;28;20202;-80
2023/01/24 05:03:06;;;;;;;5.78;1.67;;;2.40;99.90;;;;;;5061999;28;20200;-80
2023/01/24 05:05:32;;;;;;;0.70;0.70;;;2.50;99.90;;;;;;5060851;28;20194;-79
2023/01/24 05:08:01;;;;;;;1.02;0.93;;;2.50;99.90;;;;;;5060808;28;20329;-80
2023/01/24 05:10:28;;;;;;;0.50;0.40;;;2.40;99.90;;;;;;5060693;28;20261;-80
2023/01/24 05:12:54;;;;;;;3.25;1.50;;;2.40;99.90;;;;;;5061450;28;20207;-81
2023/01/24 05:15:22;;;;;;;1.30;1.02;;;2.40;99.90;;;;;;5061217;28;20219;-80
2023/01/24 05:17:49;;;;;;;0.50;0.40;;;2.40;99.90;;;;;;5061523;28;20540;-80
2023/01/24 05:20:16;;;;;;;0.50;0.43;;;2.50;99.90;;;;;;5061462;28;20197;-79
2023/01/24 05:22:46;;;;;;;1.08;0.98;;;2.50;99.90;;;;;;5060924;28;20286;-80
2023/01/24 05:25:15;;;;;;;0.50;0.40;;;2.50;99.90;;;;;;5060539;28;20218;-80
2023/01/24 05:27:42;;;;;;;0.50;0.40;;;2.60;99.90;;;;;;5060707;28;20704;-80
2023/01/24 05:30:09;;;;;;;1.67;1.02;;;2.50;99.90;;;;;;5060943;28;20634;-80
2023/01/24 05:32:36;;;;;;;0.50;0.50;;;2.50;99.90;;;;;;5059794;28;20218;-79
2023/01/24 05:35:04;;;;;;;1.95;1.02;;;2.50;99.90;;;;;;5071498;28;20183;-79
2023/01/24 05:37:30;;;;;;;0.77;0.77;;;2.50;99.90;;;;;;5074851;28;20261;-78
2023/01/24 05:39:57;;;;;;;1.15;0.85;;;2.40;99.90;;;;;;5073480;28;20218;-78
2023/01/24 05:42:25;;;;;;;2.90;2.00;;;2.40;99.90;;;;;;5073438;28;20222;-79
2023/01/24 05:44:52;;;;;;;0.98;0.80;;;2.50;99.90;;;;;;5072578;28;20215;-79
2023/01/24 05:47:19;;;;;;;1.95;1.27;;;2.40;99.90;;;;;;5072540;28;20215;-79
2023/01/24 05:49:46;;;;;;;5.07;1.80;;;2.50;99.90;;;;;;5073503;28;20220;-78
2023/01/24 05:52:14;;;;;;;0.50;0.40;;;2.60;99.90;;;;;;5072264;28;20234;-81
2023/01/24 05:54:41;;;;;;;0.50;0.40;;;2.50;99.90;;;;;;5060495;28;20679;-81
2023/01/24 05:57:08;;;;;;;2.35;1.50;;;2.50;99.90;;;;;;5061208;28;20246;-80
2023/01/24 05:59:36;;;;;;;0.50;0.50;;;2.50;99.90;;;;;;5059685;28;20195;-81
2023/01/24 06:02:03;;;;;;;0.70;0.70;;;2.50;99.90;;;;;;5059829;28;20234;-80
2023/01/24 06:04:30;;;;;;;1.50;1.08;;;2.50;99.90;;;;;;5059792;28;20282;-80
2023/01/24 06:06:57;;;;;;;0.60;0.60;;;2.60;99.90;;;;;;5060677;28;20278;-79
2023/01/24 06:09:24;;;;;;;0.82;0.82;;;2.50;99.90;;;;;;5060005;28;20319;-81
2023/01/24 06:11:51;;;;;;;0.50;0.50;;;2.60;99.90;;;;;;5059776;28;20206;-80
2023/01/24 06:14:18;;;;;;;0.57;0.57;;;2.60;99.90;;;;;;5059941;28;20206;-79
2023/01/24 06:16:47;;;;;;;0.52;0.52;;;2.60;99.90;;;;;;5058464;28;20273;-79
2023/01/24 06:19:15;;;;;;;0.52;0.50;;;2.60;99.90;;;;;;5056128;28;20195;-78
2023/01/24 06:21:46;;;;;;;3.45;2.33;;;2.60;99.90;;;;;;5056635;28;20201;-78
2023/01/24 06:24:17;;;;;;;0.50;0.40;;;2.60;99.90;;;;;;5061205;28;20202;-79
2023/01/24 06:26:45;;;;;;;3.50;1.02;;;2.60;99.90;;;;;;5061826;28;20278;-80
2023/01/24 06:29:12;;;;;;;0.50;0.40;;;2.60;99.90;;;;;;5060558;28;20266;-79
2023/01/24 06:31:48;;;;;;;0.50;0.50;;;2.60;99.90;;;;;;5060524;28;20575;-80
2023/01/24 06:34:27;;;;;;;1.88;0.60;;;2.60;99.90;;;;;;5059799;28;20255;-78
2023/01/24 06:37:07;;;;;;;1.58;1.48;;;2.60;99.90;;;;;;5057331;28;20290;-76
2023/01/24 06:39:36;;;;;;;1.25;1.23;;;2.60;99.90;;;;;;5055524;28;20183;-78
2023/01/24 06:42:03;;;;;;;0.50;0.50;;;2.60;99.90;;;;;;5056343;28;20201;-77
2023/01/24 06:44:30;;;;;;;0.95;0.95;;;2.50;99.90;;;;;;5055438;28;20228;-78
2023/01/24 06:46:58;;;;;;;2.58;2.47;;;2.60;99.90;;;;;;5055630;28;20214;-77
2023/01/24 06:49:25;;;;;;;0.85;0.85;;;2.60;99.90;;;;;;5055180;28;20684;-78
2023/01/24 06:51:53;;;;;;;1.13;0.70;;;2.60;99.90;;;;;;5057279;28;20191;-79
2023/01/24 06:54:20;;;;;;;2.05;1.02;;;2.60;99.90;;;;;;5056663;28;20197;-79
2023/01/24 06:56:46;;;;;;;2.42;2.22;;;2.60;99.90;;;;;;5058062;28;20242;-78
2023/01/24 06:59:13;;;;;;;0.50;0.50;;;2.60;99.90;;;;;;5058852;28;20194;-79
2023/01/24 07:01:40;;;;;;;0.90;0.80;;;2.60;99.90;;;;;;5059379;28;20285;-81
2023/01/24 07:04:08;;;;;;;1.08;0.98;;;2.50;99.90;;;;;;5060442;28;20282;-81
2023/01/24 07:06:35;;;;;;;1.83;0.77;;;2.50;99.90;;;;;;5059696;28;20222;-80
2023/01/24 07:09:02;;;;;;;1.02;1.02;;;2.50;99.90;;;;;;5059954;28;20198;-81
2023/01/24 07:11:29;;;;;;;0.50;0.50;;;2.60;99.90;;;;;;5057799;28;20659;-81
2023/01/24 07:13:55;;;;;;;0.50;0.50;;;2.60;99.90;;;;;;5059600;28;20194;-80
2023/01/24 07:16:22;;;;;;;0.60;0.60;;;2.50;99.90;;;;;;5057365;28;20241;-81
2023/01/24 07:18:50;;;;;;;0.50;0.50;;;2.60;99.90;;;;;;5059784;28;20203;-81
2023/01/24 07:21:19;;;;;;;3.33;0.85;;;2.60;99.90;;;;;;5058114;28;20281;-81
2023/01/24 07:23:47;;;;;;;0.70;0.60;;;2.60;99.90;;;;;;5058219;28;20286;-81
2023/01/24 07:26:14;;;;;;;0.50;0.50;;;2.60;99.90;;;;;;5057737;28;20305;-81
2023/01/24 07:28:42;;;;;;;0.93;0.90;;;2.60;99.90;;;;;;5057795;28;20285;-78
2023/01/24 07:31:13;;;;;;;3.72;1.00;;;2.60;99.90;;;;;;5059015;28;20229;-80
2023/01/24 07:33:40;;;;;;;0.50;0.40;;;2.60;99.90;;;;;;5057762;28;20194;-81
2023/01/24 07:36:12;;;;;;;0.63;0.63;;;2.60;99.90;;;;;;5056715;28;20259;-78
2023/01/24 07:38:40;;;;;;;2.90;2.63;;;2.60;99.90;;;;;;5060350;28;20217;-79
2023/01/24 07:41:08;;;;;;;1.98;0.65;;;2.60;99.90;;;;;;5064980;28;20194;-81
2023/01/24 07:43:35;;;;;;;0.50;0.40;;;2.60;99.90;;;;;;5053252;28;20587;-80
2023/01/24 07:46:03;;;;;;;3.90;1.67;;;2.60;99.90;;;;;;5058052;28;20714;-82
2023/01/24 07:48:30;;;;;;;3.15;2.95;;;2.60;99.90;;;;;;5057709;28;20186;-81
2023/01/24 07:50:59;;;;;;;1.25;1.25;;;2.60;99.90;;;;;;5057200;28;20277;-80
2023/01/24 07:53:25;;;;;;;17.00;2.28;;;2.50;99.90;;;;;;5045215;28;20299;-80
2023/01/24 07:55:54;;;;;;;0.73;0.73;;;2.60;99.90;;;;;;5035769;28;20221;-82
2023/01/24 07:58:21;;;;;;;2.15;1.90;;;2.60;99.90;;;;;;5036574;28;20290;-83
2023/01/24 08:00:48;;;;;;;1.70;1.35;;;2.60;99.90;;;;;;5038015;28;20226;-82
2023/01/24 08:03:14;;;;;;;0.50;0.50;;;2.50;99.90;;;;;;5036482;28;20229;-79
2023/01/24 08:05:41;;;;;;;0.50;0.40;;;2.60;99.90;;;;;;5035726;28;20637;-82
2023/01/24 08:08:08;;;;;;;0.75;0.75;;;2.60;99.90;;;;;;5038171;28;20673;-80
2023/01/24 08:10:35;;;;;;;2.83;1.85;;;2.70;99.90;;;;;;5038041;28;20241;-79
2023/01/24 08:13:03;;;;;;;0.63;0.63;;;2.70;99.90;;;;;;5038469;28;20205;-79
2023/01/24 08:15:30;;;;;;;0.50;0.45;;;2.60;99.90;;;;;;5038853;28;20610;-80
2023/01/24 08:17:57;;;;;;;1.25;1.15;;;2.60;99.90;;;;;;5038388;28;20223;-79
2023/01/24 08:20:24;;;;;;;0.60;0.60;;;2.70;99.90;;;;;;5038190;28;20633;-82
2023/01/24 08:22:55;;;;;;;2.85;0.82;;;2.70;99.90;;;;;;5037777;28;20286;-81
2023/01/24 08:25:22;;;;;;;0.82;0.80;;;2.70;99.90;;;;;;5038147;28;20215;-81
2023/01/24 08:27:49;;;;;;;0.50;0.50;;;2.70;99.90;;;;;;5038405;28;20246;-82
2023/01/24 08:30:17;;;;;;;1.58;1.35;;;2.60;99.90;;;;;;5039930;28;20246;-81
2023/01/24 08:32:44;;;;;;;2.88;1.25;;;2.70;99.90;;;;;;5037881;28;20244;-81
2023/01/24 08:35:11;;;;;;;1.90;1.60;;;2.70;99.90;;;;;;5038438;28;20294;-82
2023/01/24 08:37:38;;;;;;;1.20;1.20;;;2.80;99.90;;;;;;5038889;28;20223;-82
2023/01/24 08:40:07;;;;;;;0.50;0.40;;;2.80;99.90;;;;;;5037463;28;20460;-80
2023/01/24 08:42:34;;;;;;;0.57;0.57;;;2.80;99.90;;;;;;5037275;28;20199;-82
2023/01/24 08:45:00;;;;;;;0.50;0.50;;;2.80;99.90;;;;;;5038693;28;20250;-80
2023/01/24 08:47:29;;;;;;;0.50;0.40;;;2.80;99.90;;;;;;5038213;28;20243;-79
2023/01/24 08:49:56;;;;;;;1.08;1.08;;;2.80;99.90;;;;;;5039374;28;20192;-80
2023/01/24 08:52:22;;;;;;;1.88;0.93;;;2.80;99.90;;;;;;5038892;28;20253;-83
2023/01/24 08:54:49;;;;;;;0.50;0.50;;;2.90;99.90;;;;;;5037472;28;20188;-83
2023/01/24 08:57:16;;;;;;;0.50;0.50;;;3.00;99.90;;;;;;5037368;28;20283;-81
2023/01/24 08:59:43;;;;;;;1.25;0.73;;;3.00;99.90;;;;;;5037522;28;20306;-82
2023/01/24 09:02:12;;;;;;;0.50;0.50;;;3.10;99.90;;;;;;5038289;28;20230;-80
2023/01/24 09:04:42;;;;;;;3.85;3.47;;;3.10;99.90;;;;;;5037329;28;20275;-79
2023/01/24 09:07:09;;;;;;;3.20;1.95;;;3.10;99.90;;;;;;5040905;28;20223;-80
2023/01/24 09:09:36;;;;;;;3.22;1.00;;;3.00;99.90;;;;;;5025114;28;20668;-81
2023/01/24 09:12:03;;;;;;;2.53;1.60;;;3.00;99.90;;;;;;5041878;28;20235;-78
2023/01/24 09:14:30;;;;;;;0.95;0.95;;;3.00;99.90;;;;;;5040458;28;20291;-81
2023/01/24 09:16:57;;;;;;;0.60;0.60;;;3.00;99.90;;;;;;5040795;28;20238;-79
2023/01/24 09:19:26;;;;;;;0.82;0.70;;;3.00;99.90;;;;;;5041621;28;20859;-80
2023/01/24 09:21:56;;;;;;;1.98;1.88;;;3.00;99.90;;;;;;5041396;28;20196;-80
2023/01/24 09:24:24;;;;;;;1.25;1.20;;;3.00;99.90;;;;;;5040600;28;20576;-81
2023/01/24 09:26:50;;;;;;;0.50;0.50;;;3.00;99.90;;;;;;5040622;28;20250;-81
2023/01/24 09:29:17;;;;;;;1.08;0.85;;;3.00;99.90;;;;;;5041105;28;20290;-79
2023/01/24 09:31:44;;;;;;;1.80;1.15;;;3.00;99.90;;;;;;5040768;28;20263;-81
2023/01/24 09:34:11;;;;;;;1.42;1.33;;;3.00;99.90;;;;;;5039887;28;20231;-83
2023/01/24 09:36:38;;;;;;;1.25;1.15;;;3.00;99.90;;;;;;5040756;28;20693;-80
2023/01/24 09:39:06;;;;;;;0.50;0.40;;;3.10;99.90;;;;;;5040984;28;20712;-79
2023/01/24 09:41:45;;;;;;;1.35;1.25;;;3.10;99.90;;;;;;5041292;28;20219;-81
2023/01/24 09:44:21;;;;;;;2.20;2.08;;;3.10;99.90;;;;;;5042298;28;20225;-82
2023/01/24 09:46:52;;;;;;;1.08;1.08;;;3.20;99.90;;;;;;5043829;28;20275;-82
2023/01/24 09:49:28;;;;;;;5.10;2.28;;;3.10;99.90;;;;;;5042740;28;20665;-83
2023/01/24 09:51:55;;;;;;;1.85;1.75;;;3.20;99.90;;;;;;5041544;28;20267;-81
2023/01/24 09:54:30;;;;;;;2.13;1.80;;;3.10;99.90;;;;;;5041827;28;20222;-80
2023/01/24 09:56:58;;;;;;;3.25;1.25;;;3.10;99.90;;;;;;5041647;28;20298;-80
2023/01/24 09:59:36;;;;;;;1.63;1.52;;;3.10;99.90;;;;;;5042296;28;20267;-82
2023/01/24 10:02:14;;;;;;;0.50;0.40;;;3.10;99.90;;;;;;5042045;28;20256;-79
2023/01/24 10:04:41;;;;;;;0.50;0.40;;;3.20;99.90;;;;;;5041456;28;20206;-80
2023/01/24 10:07:40;;;;;;;1.23;0.88;;;3.40;99.90;;;;;;5041529;28;20309;-79
2023/01/24 10:10:18;;;;;;;0.95;0.95;;;3.60;99.90;;;;;;5027408;28;20215;-80
2023/01/24 10:12:54;;;;;;;0.77;0.77;;;3.70;99.90;;;;;;5043843;28;20210;-82
2023/01/24 10:15:40;;;;;;;0.50;0.40;;;3.80;99.90;;;;;;5046942;28;20199;-81
2023/01/24 10:18:28;;;;;;;0.77;0.77;;;3.90;99.90;;;;;;5040872;28;20211;-82
2023/01/24 10:21:23;;;;;;;2.15;1.10;;;4.10;99.90;;;;;;5041772;28;20598;-79
2023/01/24 10:23:55;;;;;;;1.85;1.75;;;4.10;99.90;;;;;;5043525;28;20199;-83
2023/01/24 10:26:33;;;;;;;0.95;0.68;;;4.20;99.90;;;;;;5040507;28;20314;-81
2023/01/24 10:29:10;;;;;;;0.50;0.50;;;4.20;99.90;;;;;;5041259;28;20199;-78
2023/01/24 10:31:41;;;;;;;0.70;0.60;;;4.40;99.90;;;;;;5040841;28;20214;-81
2023/01/24 10:34:13;;;;;;;0.50;0.50;;;4.30;99.90;;;;;;5041880;28;20223;-80
2023/01/24 10:36:43;;;;;;;1.13;1.05;;;4.30;99.90;;;;;;5039333;28;20298;-81
2023/01/24 10:39:11;;;;;;;0.50;0.40;;;4.30;99.90;;;;;;5038487;28;20225;-82
2023/01/24 10:41:39;;;;;;;0.60;0.50;;;4.30;99.90;;;;;;5038742;28;20210;-83
2023/01/24 10:44:14;;;;;;;0.50;0.40;;;4.30;99.90;;;;;;5040529;28;20282;-78
2023/01/24 10:47:09;;;;;;;1.20;0.80;;;4.30;99.90;;;;;;5041110;28;20250;-81
2023/01/24 10:49:38;;;;;;;2.00;1.75;;;4.40;99.90;;;;;;5039749;28;20247;-82
2023/01/24 10:52:10;;;;;;;1.45;1.30;;;4.50;99.90;;;;;;5040405;28;20223;-79
2023/01/24 10:54:51;;;;;;;2.67;1.58;;;4.40;99.90;;;;;;5041539;28;20259;-82
2023/01/24 10:57:28;;;;;;;0.50;0.50;;;4.30;99.90;;;;;;5040996;28;20221;-80
2023/01/24 10:59:55;;;;;;;0.50;0.40;;;4.30;99.90;;;;;;5040599;28;20206;-82
2023/01/24 11:02:25;;;;;;;4.63;2.90;;;4.30;99.90;;;;;;5040852;28;20522;-81
2023/01/24 11:04:58;;;;;;;0.50;0.40;;;4.20;99.90;;;;;;5042272;28;20195;-83
2023/01/24 11:07:29;;;;;;;0.70;0.70;;;4.10;99.90;;;;;;5041566;28;20229;-81
2023/01/24 11:09:55;;;;;;;2.65;1.60;;;4.20;99.90;;;;;;5042244;28;20198;-82
2023/01/24 11:12:24;;;;;;;1.17;1.08;;;4.30;99.90;;;;;;5041281;28;20672;-81
2023/01/24 11:14:51;;;;;;;0.50;0.40;;;4.10;99.90;;;;;;5040719;28;20226;-78
2023/01/24 11:17:36;;;;;;;0.50;0.40;;;4.10;99.90;;;;;;5041303;28;20321;-84
2023/01/24 11:20:17;;;;;;;0.95;0.85;;;4.30;99.90;;;;;;5040652;28;20289;-81
2023/01/24 11:22:51;;;;;;;0.50;0.40;;;4.40;99.90;;;;;;5041690;28;20183;-82
2023/01/24 11:25:18;;;;;;;3.60;2.88;;;4.50;99.90;;;;;;5039504;28;20269;-82
2023/01/24 11:27:48;;;;;;;0.50;0.50;;;4.40;99.90;;;;;;5040275;28;20211;-81
2023/01/24 11:30:20;;;;;;;0.60;0.60;;;4.30;99.90;;;;;;5040313;28;20266;-82
2023/01/24 11:32:57;;;;;;;0.70;0.50;;;4.30;99.90;;;;;;5039947;28;20206;-81
2023/01/24 11:35:26;;;;;;;0.52;0.52;;;4.20;99.90;;;;;;5037600;28;20219;-80
2023/01/24 11:38:11;;;;;;;3.08;0.93;;;4.20;99.90;;;;;;5040422;28;20297;-82
2023/01/24 11:40:42;;;;;;;0.60;0.60;;;4.20;99.90;;;;;;5041413;28;20237;-79
2023/01/24 11:43:34;;;;;;;4.57;3.55;;;4.20;99.90;;;;;;5039843;28;20207;-81
2023/01/24 11:46:20;;;;;;;0.65;0.65;;;4.10;99.90;;;;;;5040262;28;20254;-82
2023/01/24 11:48:53;;;;;;;0.60;0.60;;;4.10;99.90;;;;;;5039826;28;20241;-81
2023/01/24 11:51:28;;;;;;;0.70;0.70;;;4.20;99.90;;;;;;5038818;28;20558;-83
2023/01/24 11:54:19;;;;;;;1.50;1.42;;;4.20;99.90;;;;;;5037344;28;20676;-82
2023/01/24 11:56:54;;;;;;;0.60;0.60;;;4.10;99.90;;;;;;5034552;28;20302;-80
2023/01/24 11:59:38;;;;;;;1.08;1.02;;;4.20;99.90;;;;;;5035978;28;20199;-82
2023/01/24 12:02:24;;;;;;;0.70;0.68;;;4.10;99.90;;;;;;5041905;28;20194;-80
2023/01/24 12:05:12;;;;;;;2.17;1.98;;;4.20;99.90;;;;;;5059126;28;20217;-81
2023/01/24 12:07:53;;;;;;;2.08;1.98;;;4.20;99.90;;;;;;5054119;28;20242;-80
2023/01/24 12:10:25;;;;;;;0.60;0.55;;;4.30;99.90;;;;;;5056695;28;20194;-82
2023/01/24 12:13:00;;;;;;;0.50;0.40;;;4.30;99.90;;;;;;5054778;28;20377;-81
2023/01/24 12:15:39;;;;;;;0.90;0.50;;;4.60;99.90;;;;;;5055918;28;20316;-82
2023/01/24 12:18:45;;;;;;;5.30;3.70;;;4.50;99.90;;;;;;5055633;28;20708;-82
2023/01/24 12:21:13;;;;;;;1.17;1.17;;;4.60;99.90;;;;;;4994234;28;20192;-82
2023/01/24 12:23:48;;;;;;;0.50;0.50;;;4.70;99.90;;;;;;5046408;28;20194;-81
2023/01/24 12:26:19;;;;;;;0.50;0.40;;;4.50;99.90;;;;;;5057145;28;20241;-81
2023/01/24 12:28:54;;;;;;;2.55;2.25;;;4.60;99.90;;;;;;5060188;28;20233;-81
2023/01/24 12:31:31;;;;;;;1.02;1.02;;;4.50;99.90;;;;;;5060546;28;20269;-81
2023/01/24 12:34:03;;;;;;;0.50;0.40;;;4.60;99.90;;;;;;5059172;28;20294;-80
2023/01/24 12:36:38;;;;;;;0.70;0.70;;;4.70;99.90;;;;;;5058679;28;20279;-82
2023/01/24 12:39:14;;;;;;;1.25;1.15;;;4.70;99.90;;;;;;5060020;28;20222;-80
2023/01/24 12:41:42;;;;;;;0.50;0.40;;;4.80;99.90;;;;;;5062884;28;20552;-81
2023/01/24 12:44:24;;;;;;;0.50;0.40;;;4.80;99.90;;;;;;5063159;28;20667;-81
2023/01/24 12:47:16;;;;;;;0.95;0.82;;;4.90;99.90;;;;;;5064739;28;20226;-79
2023/01/24 12:49:58;;;;;;;0.50;0.40;;;4.90;99.90;;;;;;5067439;28;20189;-80
2023/01/24 12:52:32;;;;;;;0.50;0.45;;;4.90;99.90;;;;;;5066016;28;20205;-83
2023/01/24 12:55:05;;;;;;;0.65;0.65;;;4.70;99.90;;;;;;5066722;28;20218;-81
2023/01/24 12:57:39;;;;;;;1.25;1.25;;;4.70;99.90;;;;;;5066633;28;20716;-81
2023/01/24 13:00:16;;;;;;;0.50;0.50;;;4.70;99.90;;;;;;5066362;28;20229;-81
2023/01/24 13:03:10;;;;;;;0.93;0.77;;;4.60;99.90;;;;;;5065871;28;20194;-80
2023/01/24 13:05:46;;;;;;;3.33;3.13;;;4.50;99.90;;;;;;5065299;28;20195;-78
2023/01/24 13:08:24;;;;;;;0.50;0.40;;;4.40;99.90;;;;;;5065059;28;20249;-80
2023/01/24 13:11:07;;;;;;;1.23;0.82;;;4.30;99.90;;;;;;5065426;28;20195;-79
2023/01/24 13:13:40;;;;;;;4.20;2.53;;;4.40;99.90;;;;;;5064378;28;20179;-80
2023/01/24 13:16:28;;;;;;;0.63;0.60;;;4.40;99.90;;;;;;5063830;28;20258;-81
2023/01/24 13:19:02;;;;;;;5.22;4.90;;;4.40;99.90;;;;;;5065561;28;20213;-82
2023/01/24 13:21:37;;;;;;;3.30;3.17;;;4.40;99.90;;;;;;5063102;28;20198;-82
2023/01/24 13:24:21;;;;;;;1.02;0.95;;;4.40;99.90;;;;;;5063192;28;20281;-83
2023/01/24 13:27:02;;;;;;;0.50;0.50;;;4.50;99.90;;;;;;5063599;28;20630;-82
2023/01/24 13:29:45;;;;;;;2.80;2.70;;;4.50;99.90;;;;;;5063821;28;20186;-81
2023/01/24 13:32:15;;;;;;;1.58;1.48;;;4.50;99.90;;;;;;5064792;28;20201;-81
2023/01/24 13:34:47;;;;;;;0.50;0.40;;;4.50;99.90;;;;;;5063624;28;20278;-81
2023/01/24 13:37:20;;;;;;;1.35;1.25;;;4.70;99.90;;;;;;5062622;28;20217;-81
2023/01/24 13:39:48;;;;;;;1.42;1.33;;;4.70;99.90;;;;;;5063637;28;20217;-83
2023/01/24 13:42:24;;;;;;;0.60;0.60;;;4.70;99.90;;;;;;5062955;28;20226;-83
2023/01/24 13:44:52;;;;;;;0.50;0.50;;;4.70;99.90;;;;;;5060154;28;20230;-81
2023/01/24 13:47:36;;;;;;;2.90;2.13;;;4.70;99.90;;;;;;5063585;28;20344;-81
2023/01/24 13:50:16;;;;;;;0.50;0.40;;;4.60;99.90;;;;;;5063426;28;20214;-78
2023/01/24 13:52:54;;;;;;;1.27;1.08;;;4.60;99.90;;;;;;5060620;28;20194;-81